createdAt,value
2022-10-16T00:01:20.102Z,3.9
2022-10-16T00:06:18.217Z,4
2022-10-16T00:11:16.361Z,3.8
2022-10-16T00:16:14.438Z,3.8
2022-10-16T00:21:12.474Z,3.7
2022-10-16T00:26:10.629Z,3.7
2022-10-16T00:31:08.718Z,3.6
2022-10-16T00:36:07.986Z,3.7
2022-10-16T00:41:06.177Z,3.5
2022-10-16T00:46:04.408Z,3.5
2022-10-16T00:51:02.630Z,3.6
2022-10-16T00:56:01.078Z,3.7
2022-10-16T01:00:59.516Z,3.9
2022-10-16T01:05:57.647Z,3.8
2022-10-16T01:10:55.716Z,3.7
2022-10-16T01:15:53.791Z,3.7
2022-10-16T01:20:51.891Z,3.6
2022-10-16T01:25:50.046Z,3.5
2022-10-16T01:30:48.287Z,3.5
2022-10-16T01:35:46.415Z,3.5
2022-10-16T01:40:44.882Z,3.5
2022-10-16T01:45:43.101Z,3.5
2022-10-16T01:50:41.367Z,3.4
2022-10-16T01:55:39.637Z,3.4
2022-10-16T02:00:37.868Z,3.3
2022-10-16T02:05:35.855Z,3.2
2022-10-16T02:10:34.156Z,3.2
2022-10-16T02:15:32.287Z,3.1
2022-10-16T02:20:30.422Z,3
2022-10-16T02:25:28.656Z,3
2022-10-16T02:30:26.882Z,2.9
2022-10-16T02:35:24.959Z,2.9
2022-10-16T02:40:24.551Z,2.9
2022-10-16T02:45:21.286Z,2.9
2022-10-16T02:50:19.639Z,2.9
2022-10-16T02:55:17.788Z,2.8
2022-10-16T03:00:16.116Z,2.7
2022-10-16T03:05:14.135Z,2.6
2022-10-16T03:10:12.264Z,2.6
2022-10-16T03:15:10.580Z,2.5
2022-10-16T03:20:09.072Z,2.5
2022-10-16T03:25:07.351Z,2.6
2022-10-16T03:30:05.639Z,2.6
2022-10-16T03:35:03.757Z,2.4
2022-10-16T03:40:01.810Z,2.4
2022-10-16T03:45:00.003Z,2.2
2022-10-16T03:49:58.192Z,2.2
2022-10-16T03:54:56.438Z,2.2
2022-10-16T03:59:54.620Z,2.2
2022-10-16T04:04:52.809Z,2.2
2022-10-16T04:09:50.787Z,2.1
2022-10-16T04:14:48.929Z,2
2022-10-16T04:19:47.045Z,1.9
2022-10-16T04:24:45.179Z,2
2022-10-16T04:29:43.361Z,1.8
2022-10-16T04:34:41.417Z,1.7
2022-10-16T04:39:39.465Z,1.7
2022-10-16T04:44:37.442Z,1.7
2022-10-16T04:49:35.947Z,1.7
2022-10-16T04:54:34.246Z,1.7
2022-10-16T04:59:32.399Z,1.9
2022-10-16T05:04:30.698Z,2.1
2022-10-16T05:09:29.060Z,2.4
2022-10-16T05:14:27.499Z,2.7
2022-10-16T05:19:27.571Z,2.9
2022-10-16T05:24:24.491Z,3.2
2022-10-16T05:29:23.170Z,4.2
2022-10-16T05:34:24.783Z,8.1
2022-10-16T05:39:26.595Z,11.6
2022-10-16T05:44:27.371Z,14.1
2022-10-16T05:49:27.901Z,16.2
2022-10-16T05:54:27.729Z,17.8
2022-10-16T05:59:27.555Z,19.4
2022-10-16T06:04:26.951Z,20.6
2022-10-16T06:09:26.253Z,21.9
2022-10-16T06:14:25.630Z,23.3
2022-10-16T06:19:24.803Z,24
2022-10-16T06:24:24.351Z,25.5
2022-10-16T06:29:23.828Z,26.6
2022-10-16T06:34:23.045Z,27.5
2022-10-16T06:39:22.237Z,28.6
2022-10-16T06:44:21.356Z,29.3
2022-10-16T06:49:20.152Z,29.5
2022-10-16T06:54:18.819Z,30.1
2022-10-16T06:59:17.504Z,31.1
2022-10-16T07:04:16.103Z,30.9
2022-10-16T07:09:14.748Z,31.8
2022-10-16T07:14:12.956Z,32.1
2022-10-16T07:19:11.693Z,32.8
2022-10-16T07:24:09.997Z,32.6
2022-10-16T07:29:08.665Z,33
2022-10-16T07:34:07.170Z,34
2022-10-16T07:39:05.781Z,33.6
2022-10-16T07:44:04.209Z,33.5
2022-10-16T07:49:02.588Z,33.5
2022-10-16T07:54:00.895Z,34.1
2022-10-16T07:58:59.340Z,34.3
2022-10-16T08:03:57.798Z,35
2022-10-16T08:08:56.068Z,35
2022-10-16T08:13:54.347Z,34.7
2022-10-16T08:18:52.226Z,35.1
2022-10-16T08:23:52.830Z,35.8
2022-10-16T08:28:49.155Z,36.1
2022-10-16T08:33:48.326Z,36.2
2022-10-16T08:38:46.515Z,36.5
2022-10-16T08:43:44.513Z,36.6
2022-10-16T08:48:43.066Z,36.6
2022-10-16T08:53:41.217Z,36.8
2022-10-16T08:58:39.346Z,36.9
2022-10-16T09:03:37.805Z,37.2
2022-10-16T09:08:36.106Z,37.4
2022-10-16T09:13:34.179Z,37.3
2022-10-16T09:18:32.729Z,37.4
2022-10-16T09:23:30.460Z,37.5
2022-10-16T09:28:28.254Z,37.4
2022-10-16T09:33:26.581Z,37.2
2022-10-16T09:38:24.998Z,37.9
2022-10-16T09:43:22.998Z,37.9
2022-10-16T09:48:21.035Z,38
2022-10-16T09:53:19.327Z,38.2
2022-10-16T09:58:17.795Z,38
2022-10-16T10:03:16.326Z,38.7
2022-10-16T10:08:15.003Z,38.4
2022-10-16T10:13:12.896Z,38.2
2022-10-16T10:18:11.601Z,38.5
2022-10-16T10:23:10.736Z,39
2022-10-16T10:28:08.834Z,38.7
2022-10-16T10:33:06.825Z,38.5
2022-10-16T10:38:05.065Z,38.7
2022-10-16T10:43:03.345Z,39
2022-10-16T10:48:01.553Z,38.9
2022-10-16T10:52:59.323Z,38.7
2022-10-16T10:57:57.312Z,38.1
2022-10-16T11:02:54.857Z,37.7
2022-10-16T11:07:53.075Z,37.1
2022-10-16T11:12:51.511Z,36.7
2022-10-16T11:17:49.694Z,36.7
2022-10-16T11:22:47.150Z,35.5
2022-10-16T11:27:45.169Z,35.8
2022-10-16T11:32:42.883Z,35.9
2022-10-16T11:37:40.893Z,36.2
2022-10-16T11:42:39.199Z,36.2
2022-10-16T11:47:57.940Z,36.5
2022-10-16T11:52:35.639Z,36.4
2022-10-16T11:57:33.531Z,36.2
2022-10-16T12:02:31.209Z,36.1
2022-10-16T12:07:29.451Z,36.1
2022-10-16T12:12:28.165Z,35
2022-10-16T12:17:24.886Z,33.8
2022-10-16T12:22:21.960Z,32.5
2022-10-16T12:27:19.510Z,32.2
2022-10-16T12:32:24.164Z,31.9
2022-10-16T12:37:15.179Z,30.9
2022-10-16T12:42:12.745Z,30.2
2022-10-16T12:47:10.378Z,28.9
2022-10-16T12:52:07.673Z,27.3
2022-10-16T12:57:03.949Z,25.3
2022-10-16T13:02:01.092Z,24.1
2022-10-16T13:06:58.378Z,23.2
2022-10-16T13:11:57.075Z,23.2
2022-10-16T13:16:55.349Z,22.8
2022-10-16T13:21:53.305Z,22.3
2022-10-16T13:26:50.850Z,21.6
2022-10-16T13:31:47.500Z,19.9
2022-10-16T13:36:45.148Z,19.1
2022-10-16T13:41:42.845Z,18.9
2022-10-16T13:46:40.841Z,18.4
2022-10-16T13:51:38.539Z,18.2
2022-10-16T13:56:36.737Z,17.9
2022-10-16T14:01:34.842Z,17.5
2022-10-16T14:06:32.737Z,17.3
2022-10-16T14:11:30.660Z,16.9
2022-10-16T14:16:28.406Z,16.3
2022-10-16T14:21:26.441Z,16
2022-10-16T14:26:24.440Z,15.6
2022-10-16T14:31:22.408Z,15.2
2022-10-16T14:36:20.297Z,14.7
2022-10-16T14:41:18.184Z,14.3
2022-10-16T14:46:16.161Z,13.8
2022-10-16T14:51:14.138Z,13.6
2022-10-16T14:56:12.287Z,13.4
2022-10-16T15:01:10.454Z,13
2022-10-16T15:06:08.657Z,12.6
2022-10-16T15:11:06.465Z,12.1
2022-10-16T15:16:04.276Z,11.8
2022-10-16T15:21:02.360Z,11.4
2022-10-16T15:26:00.054Z,11.1
2022-10-16T15:30:57.988Z,10.8
2022-10-16T15:35:55.855Z,10.5
2022-10-16T15:40:53.979Z,10.1
2022-10-16T15:45:52.293Z,9.8
2022-10-16T15:50:50.610Z,9.5
2022-10-16T15:55:48.818Z,9.3
2022-10-16T16:00:46.962Z,9.2
2022-10-16T16:05:46.681Z,9
2022-10-16T16:10:43.148Z,8.9
2022-10-16T16:15:41.700Z,8.8
2022-10-16T16:20:39.790Z,8.8
2022-10-16T16:25:37.952Z,8.6
2022-10-16T16:30:36.110Z,8.6
2022-10-16T16:35:34.615Z,8.5
2022-10-16T16:40:32.781Z,8.5
2022-10-16T16:45:31.086Z,8.3
2022-10-16T16:50:28.860Z,8.1
2022-10-16T16:55:26.881Z,8
2022-10-16T17:00:25.403Z,7.9
2022-10-16T17:05:23.953Z,7.8
2022-10-16T17:10:22.422Z,7.7
2022-10-16T17:15:20.908Z,7.6
2022-10-16T17:20:19.233Z,7.4
2022-10-16T17:25:17.795Z,7.3
2022-10-16T17:30:15.960Z,7.3
2022-10-16T17:35:14.035Z,7.2
2022-10-16T17:45:10.520Z,7.1
2022-10-16T17:50:10.855Z,7
2022-10-16T17:55:06.815Z,6.9
2022-10-16T18:00:04.996Z,6.9
2022-10-16T18:05:03.236Z,6.8
2022-10-16T18:10:20.113Z,6.8
2022-10-16T18:14:59.746Z,6.8
2022-10-16T18:19:57.853Z,6.7
2022-10-16T18:24:56.117Z,6.7
2022-10-16T18:29:54.240Z,6.6
2022-10-16T18:34:52.485Z,6.7
2022-10-16T18:39:50.624Z,6.6
2022-10-16T18:44:50.375Z,6.7
2022-10-16T18:49:47.038Z,6.6
2022-10-16T18:54:45.215Z,6.5
2022-10-16T18:59:43.356Z,6.5
2022-10-16T19:04:41.990Z,6.6
2022-10-16T19:09:40.199Z,6.5
2022-10-16T19:14:38.501Z,6.3
2022-10-16T19:19:36.967Z,6.3
2022-10-16T19:24:35.295Z,6.2
2022-10-16T19:29:33.452Z,6.2
2022-10-16T19:34:31.687Z,6.1
2022-10-16T19:39:30.101Z,6
2022-10-16T19:44:27.969Z,5.8
2022-10-16T19:49:25.958Z,5.7
2022-10-16T19:54:24.172Z,5.6
2022-10-16T19:59:22.602Z,5.5
2022-10-16T20:04:20.843Z,5.4
2022-10-16T20:09:19.171Z,5.4
2022-10-16T20:14:17.448Z,5.3
2022-10-16T20:19:15.727Z,5.3
2022-10-16T20:24:13.871Z,5.3
2022-10-16T20:29:12.028Z,5.1
2022-10-16T20:34:10.106Z,5.1
2022-10-16T20:39:08.306Z,5
2022-10-16T20:44:06.680Z,4.9
2022-10-16T20:49:10.923Z,4.9
2022-10-16T20:54:03.317Z,4.8
2022-10-16T20:59:01.551Z,4.8
2022-10-16T21:04:00.274Z,4.8
2022-10-16T21:08:58.592Z,4.7
2022-10-16T21:13:56.928Z,4.7
2022-10-16T21:18:55.555Z,4.6
2022-10-16T21:23:53.668Z,4.6
2022-10-16T21:28:51.727Z,4.5
2022-10-16T21:33:49.754Z,4.5
2022-10-16T21:38:47.886Z,4.4
2022-10-16T21:43:46.168Z,4.3
2022-10-16T21:48:44.227Z,4.3
2022-10-16T21:53:42.126Z,4.1
2022-10-16T21:58:40.258Z,4
2022-10-16T22:03:38.382Z,4
2022-10-16T22:08:36.241Z,4
2022-10-16T22:13:34.437Z,3.9
2022-10-16T22:18:32.590Z,3.8
2022-10-16T22:23:30.729Z,3.9
2022-10-16T22:28:28.741Z,3.9
2022-10-16T22:33:26.962Z,3.9
2022-10-16T22:38:25.102Z,3.9
2022-10-16T22:43:23.216Z,3.9
2022-10-16T22:48:21.162Z,3.7
2022-10-16T22:53:19.676Z,3.8
2022-10-16T22:58:18.011Z,3.7
2022-10-16T23:03:16.513Z,3.7
2022-10-16T23:08:14.669Z,3.6
2022-10-16T23:13:12.946Z,3.6
2022-10-16T23:18:11.248Z,3.6
2022-10-16T23:23:09.437Z,3.6
2022-10-16T23:28:07.638Z,3.5
2022-10-16T23:33:05.871Z,3.4
2022-10-16T23:38:04.066Z,3.3
2022-10-16T23:43:02.136Z,3.2
2022-10-16T23:48:00.309Z,3.1
2022-10-16T23:52:58.304Z,3
2022-10-16T23:57:56.412Z,3
